Time;durP1;ratioP1;P1;durP2;ratioP2;P2;SDS_P1;SDS_P2;PMS_P1;PMS_P2;Temp;Humidity;BMP_temperature;BMP_pressure;BME280_temperature;BME280_humidity;BME280_pressure;Samples;Min_cycle;Max_cycle;Signal;HPM_P1;HPM_P2
2022/07/12 00:00:26;;;;;;;;;;;;;;;13.08;100.00;98929.47;1714947;83;21152;-73
2022/07/12 00:03:01;;;;;;;;;;;;;;;13.03;100.00;98920.06;1714822;83;20148;-74
2022/07/12 00:05:28;;;;;;;;;;;;;;;12.99;100.00;98921.33;1709209;83;20124;-74
2022/07/12 00:08:06;;;;;;;;;;;;;;;12.95;100.00;98919.05;1714742;83;20113;-73
2022/07/12 00:10:37;;;;;;;;;;;;;;;12.90;100.00;98922.03;1714038;83;20163;-73
2022/07/12 00:13:07;;;;;;;;;;;;;;;12.86;100.00;98917.79;1712710;83;21181;-73
2022/07/12 00:15:39;;;;;;;;;;;;;;;12.82;100.00;98916.88;1713777;83;20518;-73
2022/07/12 00:18:16;;;;;;;;;;;;;;;12.80;100.00;98913.66;1715020;83;20184;-73
2022/07/12 00:20:42;;;;;;;;;;;;;;;12.77;100.00;98908.84;1714393;83;20148;-73
2022/07/12 00:23:12;;;;;;;;;;;;;;;12.73;100.00;98913.44;1713682;83;20137;-73
2022/07/12 00:26:02;;;;;;;;;;;;;;;12.71;100.00;98920.47;1714310;83;21143;-73
2022/07/12 00:28:18;;;;;;;;;;;;;;;12.68;100.00;98928.03;1707905;83;20180;-73
2022/07/12 00:30:45;;;;;;;;;;;;;;;12.63;100.00;98924.14;1714949;83;20463;-74
2022/07/12 00:35:50;;;;;;;;;;;;;;;12.55;100.00;98924.48;1707637;83;20144;-73
2022/07/12 00:38:18;;;;;;;;;;;;;;;12.51;100.00;98927.69;1714874;83;21113;-74
2022/07/12 00:40:44;;;;;;;;;;;;;;;12.45;100.00;98918.05;1713922;83;20188;-73
2022/07/12 00:43:16;;;;;;;;;;;;;;;12.42;100.00;98921.48;1715177;83;20463;-74
2022/07/12 00:45:44;;;;;;;;;;;;;;;12.36;100.00;98918.72;1714200;83;20116;-74
2022/07/12 00:48:17;;;;;;;;;;;;;;;12.33;100.00;98922.16;1689648;83;20124;-74
2022/07/12 00:50:50;;;;;;;;;;;;;;;12.29;100.00;98921.23;1716733;83;21150;-74
2022/07/12 00:53:23;;;;;;;;;;;;;;;12.24;100.00;98927.19;1716587;83;20474;-74
2022/07/12 00:55:50;;;;;;;;;;;;;;;12.19;100.00;98921.91;1715653;83;20447;-74
2022/07/12 00:58:22;;;;;;;;;;;;;;;12.15;100.00;98922.93;1687329;83;20144;-73
2022/07/12 01:00:48;;;;;;;;;;;;;;;12.12;100.00;98923.64;1715580;83;20177;-74
2022/07/12 01:03:19;;;;;;;;;;;;;;;12.08;100.00;98917.21;1715858;82;21063;-73
2022/07/12 01:05:48;;;;;;;;;;;;;;;12.05;100.00;98922.02;1687461;83;20117;-74
2022/07/12 01:08:20;;;;;;;;;;;;;;;12.01;100.00;98915.59;1716707;83;20148;-74
2022/07/12 01:10:51;;;;;;;;;;;;;;;11.98;100.00;98921.77;1715838;83;20180;-74
2022/07/12 01:13:24;;;;;;;;;;;;;;;11.93;100.00;98924.17;1688623;83;20144;-74
2022/07/12 01:15:57;;;;;;;;;;;;;;;11.89;100.00;98924.04;1716655;83;21075;-74
2022/07/12 01:18:23;;;;;;;;;;;;;;;11.85;100.00;98926.44;1708839;83;20143;-74
2022/07/12 01:20:58;;;;;;;;;;;;;;;11.80;100.00;98926.64;1689043;83;32662;-73
2022/07/12 01:23:29;;;;;;;;;;;;;;;11.76;100.00;98925.11;1684184;83;20152;-74
2022/07/12 01:25:57;;;;;;;;;;;;;;;11.74;100.00;98923.84;1715634;83;20112;-74
2022/07/12 01:28:30;;;;;;;;;;;;;;;11.71;100.00;98925.32;1688664;83;20167;-73
2022/07/12 01:30:59;;;;;;;;;;;;;;;11.70;100.00;98928.41;1692131;83;20144;-74
2022/07/12 01:33:33;;;;;;;;;;;;;;;11.67;100.00;98926.33;1688572;83;20152;-74
2022/07/12 01:36:00;;;;;;;;;;;;;;;11.63;100.00;98926.20;1688481;83;20415;-73
2022/07/12 01:38:33;;;;;;;;;;;;;;;11.60;100.00;98922.75;1716762;83;20179;-73
2022/07/12 01:41:01;;;;;;;;;;;;;;;11.57;100.00;98925.61;1715096;83;21133;-74
2022/07/12 01:43:31;;;;;;;;;;;;;;;11.55;100.00;98928.48;1688331;83;20120;-74
2022/07/12 01:45:59;;;;;;;;;;;;;;;11.52;100.00;98922.29;1716765;83;20124;-73
2022/07/12 01:48:33;;;;;;;;;;;;;;;11.49;100.00;98924.34;1716728;83;20153;-73
2022/07/12 01:51:04;;;;;;;;;;;;;;;11.47;100.00;98922.49;1716744;83;20478;-73
2022/07/12 01:53:35;;;;;;;;;;;;;;;11.44;100.00;98919.05;1716562;83;21513;-74
2022/07/12 01:56:03;;;;;;;;;;;;;;;11.42;100.00;98921.33;1710091;83;20466;-74
2022/07/12 01:58:34;;;;;;;;;;;;;;;11.39;100.00;98920.62;1716774;83;20451;-74
2022/07/12 02:01:02;;;;;;;;;;;;;;;11.37;100.00;98921.53;1716515;83;20116;-74
2022/07/12 02:03:38;;;;;;;;;;;;;;;11.34;100.00;98924.95;1687381;83;20180;-74
2022/07/12 02:06:03;;;;;;;;;;;;;;;11.30;100.00;98920.69;1715808;83;21309;-73
2022/07/12 02:08:33;;;;;;;;;;;;;;;11.29;100.00;98921.02;1716453;83;20121;-72
2022/07/12 02:11:03;;;;;;;;;;;;;;;11.24;100.00;98924.20;1716725;83;20132;-73
2022/07/12 02:13:33;;;;;;;;;;;;;;;11.22;100.00;98927.86;1716631;83;20141;-73
2022/07/12 02:16:04;;;;;;;;;;;;;;;11.21;100.00;98932.31;1716616;83;20120;-73
2022/07/12 02:18:32;;;;;;;;;;;;;;;11.17;100.00;98933.55;1716512;83;21137;-73
2022/07/12 02:21:10;;;;;;;;;;;;;;;11.15;100.00;98934.45;1713290;83;20125;-73
2022/07/12 02:23:40;;;;;;;;;;;;;;;11.14;100.00;98933.41;1688624;83;20113;-73
2022/07/12 02:26:12;;;;;;;;;;;;;;;11.14;100.00;98938.91;1715496;83;20176;-73
2022/07/12 02:28:48;;;;;;;;;;;;;;;11.12;100.00;98941.98;1716683;83;20112;-74
2022/07/12 02:31:16;;;;;;;;;;;;;;;11.11;100.00;98950.56;1716758;83;21124;-72
2022/07/12 02:33:46;;;;;;;;;;;;;;;11.08;100.00;98949.86;1716111;83;20486;-73
2022/07/12 02:36:21;;;;;;;;;;;;;;;11.07;100.00;98946.30;1716594;83;20105;-73
2022/07/12 02:38:44;;;;;;;;;;;;;;;11.07;100.00;98953.17;1715369;83;20101;-73
2022/07/12 02:41:12;;;;;;;;;;;;;;;11.06;100.00;98948.81;1717052;83;20144;-73
2022/07/12 02:43:49;;;;;;;;;;;;;;;11.06;100.00;98956.25;1687556;83;20132;-72
2022/07/12 02:46:18;;;;;;;;;;;;;;;11.05;100.00;98955.45;1710150;83;20143;-72
2022/07/12 02:48:45;;;;;;;;;;;;;;;11.07;100.00;98953.17;1721217;83;20140;-72
2022/07/12 02:51:15;;;;;;;;;;;;;;;11.09;100.00;98956.39;1724863;83;20416;-73
2022/07/12 02:53:46;;;;;;;;;;;;;;;11.12;100.00;98956.29;1700247;83;20116;-73
2022/07/12 02:56:21;;;;;;;;;;;;;;;11.15;100.00;98955.63;1724950;83;20743;-72
2022/07/12 02:58:51;;;;;;;;;;;;;;;11.22;100.00;98958.65;1724779;83;20160;-73
2022/07/12 03:01:17;;;;;;;;;;;;;;;11.31;100.00;98962.70;1724891;83;20123;-73
2022/07/12 03:03:47;;;;;;;;;;;;;;;11.40;100.00;98960.70;1724899;83;20128;-73
2022/07/12 03:06:16;;;;;;;;;;;;;;;11.50;100.00;98958.36;1725001;83;20151;-73
2022/07/12 03:08:50;;;;;;;;;;;;;;;11.61;100.00;98964.80;1724990;83;21559;-73
2022/07/12 03:11:21;;;;;;;;;;;;;;;11.69;100.00;98963.34;1725055;83;20128;-73
2022/07/12 03:13:48;;;;;;;;;;;;;;;11.77;100.00;98955.63;1724971;83;20108;-73
2022/07/12 03:16:19;;;;;;;;;;;;;;;11.82;100.00;98956.78;1724998;83;20435;-73
2022/07/12 03:18:52;;;;;;;;;;;;;;;11.87;100.00;98961.27;1724850;83;20172;-73
2022/07/12 03:21:25;;;;;;;;;;;;;;;11.89;100.00;98963.92;1702972;83;21095;-73
2022/07/12 03:23:56;;;;;;;;;;;;;;;11.93;100.00;98965.42;1724645;83;20120;-73
2022/07/12 03:26:21;;;;;;;;;;;;;;;11.93;100.00;98962.67;1724890;83;20124;-73
2022/07/12 03:29:00;;;;;;;;;;;;;;;11.92;100.00;98965.77;1699375;83;20127;-72
2022/07/12 03:31:31;;;;;;;;;;;;;;;11.90;100.00;98965.53;1723457;83;20112;-73
2022/07/12 03:34:03;;;;;;;;;;;;;;;11.89;100.00;98970.80;1724950;83;21238;-73
2022/07/12 03:36:32;;;;;;;;;;;;;;;11.89;100.00;98963.12;1724960;83;20491;-73
2022/07/12 03:39:07;;;;;;;;;;;;;;;11.90;100.00;98963.34;1725001;83;20112;-72
2022/07/12 03:41:44;;;;;;;;;;;;;;;11.90;100.00;98966.09;1724912;83;20116;-73
2022/07/12 03:44:10;;;;;;;;;;;;;;;11.93;100.00;98964.63;1725066;83;20444;-73
2022/07/12 03:46:36;;;;;;;;;;;;;;;11.97;100.00;98975.18;1724884;83;21492;-73
2022/07/12 03:49:06;;;;;;;;;;;;;;;11.99;100.00;98977.02;1724882;83;20112;-73
2022/07/12 03:51:34;;;;;;;;;;;;;;;12.00;100.00;98966.25;1720604;83;20227;-73
2022/07/12 03:54:07;;;;;;;;;;;;;;;12.02;100.00;98970.84;1724844;83;20104;-73
2022/07/12 03:59:25;;;;;;;;;;;;;;;12.05;100.00;98967.41;1725085;83;21158;-72
2022/07/12 04:01:54;;;;;;;;;;;;;;;12.07;100.00;98966.50;1725013;83;20112;-72
2022/07/12 04:04:25;;;;;;;;;;;;;;;12.09;100.00;98964.22;1700304;83;20116;-73
2022/07/12 04:06:52;;;;;;;;;;;;;;;12.14;100.00;98969.47;1724951;83;20116;-72
2022/07/12 04:09:23;;;;;;;;;;;;;;;12.17;100.00;98967.42;1724973;83;20462;-72
2022/07/12 04:11:50;;;;;;;;;;;;;;;12.19;100.00;98963.76;1724794;83;21236;-72
2022/07/12 04:14:21;;;;;;;;;;;;;;;12.24;100.00;98970.42;1724846;83;20108;-72
2022/07/12 04:16:49;;;;;;;;;;;;;;;12.28;100.00;98967.22;1720022;83;20446;-73
2022/07/12 04:19:23;;;;;;;;;;;;;;;12.33;100.00;98964.82;1725025;83;20179;-72
2022/07/12 04:21:52;;;;;;;;;;;;;;;12.37;100.00;98967.92;1725126;83;20144;-73
2022/07/12 04:24:22;;;;;;;;;;;;;;;12.42;100.00;98961.40;1725029;83;21559;-72
2022/07/12 04:26:51;;;;;;;;;;;;;;;12.47;100.00;98961.98;1725111;83;20467;-72
2022/07/12 04:29:20;;;;;;;;;;;;;;;12.54;100.00;98965.55;1725020;83;20140;-72
2022/07/12 04:31:51;;;;;;;;;;;;;;;12.59;100.00;98959.81;1699030;83;20467;-72
2022/07/12 04:34:23;;;;;;;;;;;;;;;12.66;100.00;98962.80;1724899;83;20115;-72
2022/07/12 04:36:49;;;;;;;;;;;;;;;12.73;100.00;98963.58;1729050;82;21944;-72
2022/07/12 04:39:27;;;;;;;;;;;;;;;12.81;100.00;98966.80;1750382;82;20445;-72
2022/07/12 04:41:56;;;;;;;;;;;;;;;12.89;100.00;98970.01;1754079;82;20117;-73
2022/07/12 04:44:27;;;;;;;;;;;;;;;12.97;100.00;98969.09;1754872;82;20098;-72
2022/07/12 04:47:02;;;;;;;;;;;;;;;13.06;100.00;98969.77;1708424;83;20155;-72
2022/07/12 04:49:27;;;;;;;;;;;;;;;13.14;100.00;98972.18;1724791;83;21783;-71
2022/07/12 04:51:53;;;;;;;;;;;;;;;13.22;100.00;98972.66;1724800;83;20124;-72
2022/07/12 04:54:23;;;;;;;;;;;;;;;13.26;100.00;98979.09;1724917;83;20144;-72
2022/07/12 04:56:52;;;;;;;;;;;;;;;13.31;100.00;98984.91;1729224;82;20109;-72
2022/07/12 04:59:25;;;;;;;;;;;;;;;13.37;100.00;98982.14;1738252;82;20143;-72
2022/07/12 05:01:52;;;;;;;;;;;;;;;13.43;100.00;98981.55;1724082;83;21488;-72
2022/07/12 05:04:21;;;;;;;;;;;;;;;13.52;100.00;98993.83;1724877;83;20160;-71
2022/07/12 05:06:52;;;;;;;;;;;;;;;13.62;100.00;98993.34;1724863;83;20124;-73
2022/07/12 05:09:22;;;;;;;;;;;;;;;13.75;100.00;98992.16;1746589;82;20462;-73
2022/07/12 05:11:55;;;;;;;;;;;;;;;13.92;100.00;98996.55;1754624;82;20126;-71
2022/07/12 05:14:23;;;;;;;;;;;;;;;14.03;100.00;98994.09;1729032;82;20141;-71
2022/07/12 05:16:50;;;;;;;;;;;;;;;14.12;100.00;98991.41;1754831;82;20125;-70
2022/07/12 05:19:23;;;;;;;;;;;;;;;14.18;99.50;98987.81;1729196;82;20113;-70
2022/07/12 05:21:52;;;;;;;;;;;;;;;14.21;98.73;98989.29;1754463;82;20574;-71
2022/07/12 05:24:26;;;;;;;;;;;;;;;14.29;99.87;98990.28;1729172;82;20469;-70
2022/07/12 05:26:49;;;;;;;;;;;;;;;14.43;97.68;98999.56;1754465;82;21787;-70
2022/07/12 05:29:24;;;;;;;;;;;;;;;14.49;95.84;98991.20;1728333;82;20125;-71
2022/07/12 05:31:56;;;;;;;;;;;;;;;14.52;95.14;98992.68;1742960;82;20133;-71
2022/07/12 05:34:23;;;;;;;;;;;;;;;14.57;94.74;98994.95;1755094;82;20488;-71
2022/07/12 05:36:51;;;;;;;;;;;;;;;14.60;92.47;98991.48;1754962;81;20134;-71
2022/07/12 05:39:23;;;;;;;;;;;;;;;14.66;92.84;98994.20;1728513;82;20709;-70
2022/07/12 05:41:57;;;;;;;;;;;;;;;14.76;93.41;98995.05;1729077;82;20126;-71
2022/07/12 05:44:28;;;;;;;;;;;;;;;14.83;91.73;98996.04;1729226;82;20126;-71
2022/07/12 05:46:54;;;;;;;;;;;;;;;14.90;91.21;98998.75;1754485;82;20113;-71
2022/07/12 05:49:21;;;;;;;;;;;;;;;14.98;91.77;99001.34;1727357;82;20197;-71
2022/07/12 05:54:33;;;;;;;;;;;;;;;15.18;89.82;99003.55;1751873;82;20162;-71
2022/07/12 05:57:03;;;;;;;;;;;;;;;15.27;88.90;99003.37;1752095;82;20109;-71
2022/07/12 05:59:49;;;;;;;;;;;;;;;15.31;88.85;99005.63;1751176;82;20533;-71
2022/07/12 06:02:07;;;;;;;;;;;;;;;15.33;88.68;99004.11;1750886;82;20141;-73
2022/07/12 06:04:39;;;;;;;;;;;;;;;15.41;88.25;99005.08;1751620;82;20492;-71
2022/07/12 06:07:06;;;;;;;;;;;;;;;15.50;86.41;99007.06;1751622;82;20118;-73
2022/07/12 06:09:34;;;;;;;;;;;;;;;15.54;85.62;99006.56;1752138;82;20137;-77
2022/07/12 06:12:03;;;;;;;;;;;;;;;15.58;86.38;99009.44;1751652;82;20120;-77
2022/07/12 06:14:35;;;;;;;;;;;;;;;15.65;87.39;99007.59;1751637;82;20146;-78
2022/07/12 06:17:00;;;;;;;;;;;;;;;15.75;85.47;99015.33;1751808;82;21785;-76
2022/07/12 06:19:27;;;;;;;;;;;;;;;15.83;84.92;99003.83;1751374;82;20152;-78
2022/07/12 06:22:00;;;;;;;;;;;;;;;15.92;85.34;99006.38;1723016;82;20153;-78
2022/07/12 06:24:31;;;;;;;;;;;;;;;16.05;84.45;99011.99;1751630;82;20534;-77
2022/07/12 06:26:59;;;;;;;;;;;;;;;16.15;82.62;99006.67;1724167;82;20509;-77
2022/07/12 06:29:27;;;;;;;;;;;;;;;16.22;82.09;99008.75;1724173;82;20227;-77
2022/07/12 06:31:57;;;;;;;;;;;;;;;16.30;82.55;99014.64;1751767;82;20142;-77
2022/07/12 06:34:25;;;;;;;;;;;;;;;16.43;80.82;99017.47;1751740;82;20141;-77
2022/07/12 06:36:54;;;;;;;;;;;;;;;16.53;81.41;99018.03;1752011;82;20113;-77
2022/07/12 06:39:20;;;;;;;;;;;;;;;16.61;79.70;99020.56;1752223;82;20122;-77
2022/07/12 06:41:48;;;;;;;;;;;;;;;16.69;78.84;99020.14;1752107;82;21136;-77
2022/07/12 06:44:21;;;;;;;;;;;;;;;16.77;78.64;99022.64;1751934;82;20531;-78
2022/07/12 06:46:53;;;;;;;;;;;;;;;16.88;79.20;99023.41;1751492;82;20149;-76
2022/07/12 06:49:20;;;;;;;;;;;;;;;17.00;77.84;99019.86;1743520;81;20165;-77
2022/07/12 06:51:51;;;;;;;;;;;;;;;17.10;76.91;99027.55;1746584;82;20141;-76
2022/07/12 06:54:19;;;;;;;;;;;;;;;17.21;76.39;99024.16;1715885;82;20102;-77
2022/07/12 06:56:45;;;;;;;;;;;;;;;17.29;75.06;99025.87;1746302;82;20488;-76
2022/07/12 06:59:14;;;;;;;;;;;;;;;17.34;75.53;99026.91;1745909;82;20488;-78
2022/07/12 07:01:55;;;;;;;;;;;;;;;17.40;74.15;99036.52;1743078;82;20137;-76
2022/07/12 07:04:14;;;;;;;;;;;;;;;17.50;74.27;99036.67;1728931;82;20112;-76
2022/07/12 07:06:44;;;;;;;;;;;;;;;17.60;74.12;99031.06;1715217;82;21179;-72
2022/07/12 07:09:14;;;;;;;;;;;;;;;17.72;73.50;99032.85;1717000;83;20149;-69
2022/07/12 07:11:43;;;;;;;;;;;;;;;17.81;73.90;99038.34;1716590;83;20176;-74
2022/07/12 07:14:11;;;;;;;;;;;;;;;17.90;73.22;99037.26;1716836;83;20165;-70
2022/07/12 07:16:45;;;;;;;;;;;;;;;17.98;70.65;99023.06;1687798;83;20428;-78
2022/07/12 07:19:13;;;;;;;;;;;;;;;18.03;71.40;99033.83;1715106;83;22213;-73
2022/07/12 07:21:41;;;;;;;;;;;;;;;18.11;70.84;99040.28;1687393;83;20168;-72
2022/07/12 07:24:09;;;;;;;;;;;;;;;18.20;70.64;99045.55;1716702;83;20120;-68
2022/07/12 07:26:36;;;;;;;;;;;;;;;18.30;71.34;99032.37;1716650;83;20366;-68
2022/07/12 07:31:56;;;;;;;;;;;;;;;18.52;69.29;99034.77;1716813;83;21167;-68
2022/07/12 07:34:19;;;;;;;;;;;;;;;18.52;68.81;99038.34;1715934;83;20164;-72
2022/07/12 07:36:45;;;;;;;;;;;;;;;18.48;69.40;99046.64;1719564;83;20097;-72
2022/07/12 07:39:14;;;;;;;;;;;;;;;18.45;69.94;99047.44;1689204;85;20146;-72
2022/07/12 07:41:44;;;;;;;;;;;;;;;18.45;69.74;99046.05;1670915;85;20146;-72
2022/07/12 07:44:11;;;;;;;;;;;;;;;18.47;70.13;99044.28;1688876;84;21151;-72
2022/07/12 07:46:41;;;;;;;;;;;;;;;18.49;70.08;99047.45;1689489;84;20121;-72
2022/07/12 07:49:10;;;;;;;;;;;;;;;18.41;68.12;99047.98;1689438;84;20193;-72
2022/07/12 07:51:37;;;;;;;;;;;;;;;18.27;68.38;99047.82;1692734;85;20759;-71
2022/07/12 07:54:10;;;;;;;;;;;;;;;18.17;69.94;99056.83;1693095;84;20412;-70
2022/07/12 07:56:39;;;;;;;;;;;;;;;18.09;69.49;99047.60;1678601;85;20149;-70
2022/07/12 07:59:11;;;;;;;;;;;;;;;18.05;70.17;99052.90;1678192;85;20130;-71
2022/07/12 08:01:58;;;;;;;;;;;;;;;18.02;69.91;99058.63;1723182;82;20138;-71
2022/07/12 08:04:25;;;;;;;;;;;;;;;18.00;69.26;99052.64;1722581;82;20128;-70
2022/07/12 08:06:56;;;;;;;;;;;;;;;18.12;70.25;99054.38;1709324;82;20125;-72
2022/07/12 08:09:22;;;;;;;;;;;;;;;18.36;71.50;99041.97;1724598;83;21137;-70
2022/07/12 08:11:58;;;;;;;;;;;;;;;18.71;69.60;99045.73;1700157;83;20124;-68
2022/07/12 08:14:24;;;;;;;;;;;;;;;19.01;67.18;99053.96;1724286;83;20152;-69
2022/07/12 08:16:54;;;;;;;;;;;;;;;19.31;67.48;99046.23;1724999;82;20489;-69
2022/07/12 08:19:23;;;;;;;;;;;;;;;19.58;65.77;99037.12;1725040;83;20112;-75
2022/07/12 08:21:55;;;;;;;;;;;;;;;19.86;67.71;99027.30;1724917;83;21150;-69
2022/07/12 08:24:24;;;;;;;;;;;;;;;20.26;66.09;99031.83;1725122;83;20128;-69
2022/07/12 08:27:01;;;;;;;;;;;;;;;20.33;62.21;99038.23;1723154;83;20112;-71
2022/07/12 08:29:27;;;;;;;;;;;;;;;20.27;60.95;99028.66;1724279;83;20171;-70
2022/07/12 08:31:56;;;;;;;;;;;;;;;20.45;62.69;99035.71;1725317;83;20451;-71
2022/07/12 08:34:25;;;;;;;;;;;;;;;20.77;59.99;99031.61;1724861;82;21134;-71
2022/07/12 08:36:54;;;;;;;;;;;;;;;21.04;59.54;99032.00;1724836;83;20148;-71
2022/07/12 08:39:22;;;;;;;;;;;;;;;21.23;58.71;99030.84;1724984;83;20144;-71
2022/07/12 08:41:53;;;;;;;;;;;;;;;21.10;58.30;99042.37;1700278;83;20161;-74
2022/07/12 08:44:23;;;;;;;;;;;;;;;20.74;57.90;99040.77;1725032;82;20475;-74
2022/07/12 08:46:56;;;;;;;;;;;;;;;20.21;60.37;99047.57;1724317;83;21167;-75
2022/07/12 08:49:27;;;;;;;;;;;;;;;19.70;62.50;99047.91;1723661;83;20159;-72
2022/07/12 08:51:55;;;;;;;;;;;;;;;19.31;64.64;99051.00;1716428;83;20164;-74
2022/07/12 08:54:22;;;;;;;;;;;;;;;19.04;66.90;99059.55;1716523;82;20172;-77
2022/07/12 08:56:54;;;;;;;;;;;;;;;18.82;68.04;99065.30;1716647;83;20148;-75
2022/07/12 08:59:22;;;;;;;;;;;;;;;18.56;68.68;99072.54;1688592;83;20467;-72
2022/07/12 09:01:55;;;;;;;;;;;;;;;18.24;69.65;99073.58;1716658;83;20112;-74
2022/07/12 09:04:27;;;;;;;;;;;;;;;17.97;70.78;99072.03;1715431;83;20112;-75
2022/07/12 09:06:59;;;;;;;;;;;;;;;17.69;72.45;99066.32;1716585;82;20124;-72
2022/07/12 09:09:31;;;;;;;;;;;;;;;17.50;74.49;99067.20;1715213;83;20152;-72
2022/07/12 09:12:02;;;;;;;;;;;;;;;17.39;76.13;99071.78;1688366;83;20148;-72
2022/07/12 09:14:32;;;;;;;;;;;;;;;17.28;77.62;99071.42;1716020;82;20467;-73
2022/07/12 09:17:12;;;;;;;;;;;;;;;17.21;79.03;99065.77;1716606;83;20463;-72
2022/07/12 09:19:49;;;;;;;;;;;;;;;17.14;80.30;99066.44;1716204;83;20140;-71
2022/07/12 09:22:17;;;;;;;;;;;;;;;17.01;81.85;99066.41;1726678;82;20161;-73
2022/07/12 09:24:52;;;;;;;;;;;;;;;16.91;83.91;99073.38;1722295;82;21137;-72
2022/07/12 09:27:16;;;;;;;;;;;;;;;16.86;84.51;99073.68;1716477;83;20124;-71
2022/07/12 09:29:49;;;;;;;;;;;;;;;16.84;85.64;99071.86;1716558;83;20279;-80
2022/07/12 09:38:00;;;;;;;;;;;;;;;17.19;86.58;99070.87;1688552;83;20132;-72
2022/07/12 09:40:24;;;;;;;;;;;;;;;17.60;87.27;99065.77;1683536;85;20143;-71
2022/07/12 09:42:54;;;;;;;;;;;;;;;18.04;85.18;99068.77;1689110;83;20089;-72
2022/07/12 09:45:23;;;;;;;;;;;;;;;18.36;82.76;99057.25;1685221;84;20086;-76
2022/07/12 09:47:49;;;;;;;;;;;;;;;18.55;82.02;99057.63;1689133;85;20117;-72
2022/07/12 09:50:18;;;;;;;;;;;;;;;18.83;79.36;99049.63;1671147;85;20121;-77
2022/07/12 09:52:46;;;;;;;;;;;;;;;19.12;79.79;99050.06;1671047;85;20178;-72
2022/07/12 09:55:20;;;;;;;;;;;;;;;19.60;77.12;99044.48;1689198;84;20097;-72
2022/07/12 09:57:50;;;;;;;;;;;;;;;19.98;74.31;99036.12;1688938;84;20114;-72
2022/07/12 10:00:21;;;;;;;;;;;;;;;20.41;73.00;99033.51;1690762;83;20098;-72
2022/07/12 10:02:47;;;;;;;;;;;;;;;20.90;69.98;99025.81;1717545;83;20798;-72
2022/07/12 10:05:23;;;;;;;;;;;;;;;21.23;68.54;99022.47;1717898;83;20127;-72
2022/07/12 10:07:55;;;;;;;;;;;;;;;21.49;67.08;99024.80;1670577;85;20090;-71
2022/07/12 10:10:21;;;;;;;;;;;;;;;21.65;63.38;99034.16;1685961;83;20433;-72
2022/07/12 10:12:52;;;;;;;;;;;;;;;21.62;61.86;99029.38;1721036;83;20158;-71
2022/07/12 10:15:22;;;;;;;;;;;;;;;21.50;62.54;99043.16;1720768;83;21163;-72
2022/07/12 10:17:55;;;;;;;;;;;;;;;21.32;59.69;99045.19;1696271;83;20115;-72
2022/07/12 10:20:26;;;;;;;;;;;;;;;21.14;58.77;99038.78;1697350;83;20139;-73
2022/07/12 10:23:19;;;;;;;;;;;;;;;21.24;57.36;99040.81;1713357;83;20155;-72
2022/07/12 10:25:57;;;;;;;;;;;;;;;21.27;54.89;99038.61;1640352;86;20174;-74
2022/07/12 10:28:25;;;;;;;;;;;;;;;21.16;54.56;99039.98;1666715;85;21180;-74
2022/07/12 10:31:00;;;;;;;;;;;;;;;21.24;55.06;99047.19;1700636;83;20454;-76
2022/07/12 10:33:29;;;;;;;;;;;;;;;21.28;54.03;99042.41;1728220;82;20075;-75
2022/07/12 10:36:07;;;;;;;;;;;;;;;21.27;54.28;99049.78;1684079;83;20107;-75
2022/07/12 10:38:39;;;;;;;;;;;;;;;21.42;55.39;99043.76;1727984;82;20444;-76
2022/07/12 10:41:21;;;;;;;;;;;;;;;21.84;54.32;99032.31;1722189;83;20097;-79
2022/07/12 10:44:11;;;;;;;;;;;;;;;22.26;52.22;99035.56;1698664;83;20480;-73
2022/07/12 10:46:46;;;;;;;;;;;;;;;22.51;51.64;99049.42;1702198;84;20416;-70
2022/07/12 10:49:32;;;;;;;;;;;;;;;22.68;52.23;99056.89;1696785;84;20511;-73
2022/07/12 10:52:13;;;;;;;;;;;;;;;22.77;52.41;99048.05;1722661;82;20136;-73
2022/07/12 10:54:50;;;;;;;;;;;;;;;22.50;49.71;99055.42;1728773;82;21170;-75
2022/07/12 10:57:50;;;;;;;;;;;;;;;22.29;49.79;99047.33;1705494;82;20089;-75
2022/07/12 11:00:12;;;;;;;;;;;;;;;22.42;48.76;99051.07;1723967;83;20116;-74
2022/07/12 11:02:41;;;;;;;;;;;;;;;22.63;49.25;99061.52;1724412;83;20073;-75
2022/07/12 11:05:11;;;;;;;;;;;;;;;22.84;49.34;99055.63;1724450;82;20117;-76
2022/07/12 11:07:38;;;;;;;;;;;;;;;22.83;47.49;99043.64;1742690;82;21097;-77
2022/07/12 11:10:11;;;;;;;;;;;;;;;22.78;47.86;99048.24;1754132;82;20083;-78
2022/07/12 11:12:39;;;;;;;;;;;;;;;22.82;48.18;99037.05;1731413;82;20145;-76
2022/07/12 11:15:14;;;;;;;;;;;;;;;22.91;48.15;99042.99;1702973;83;20146;-82
2022/07/12 11:17:44;;;;;;;;;;;;;;;23.14;49.44;99047.39;1722796;83;20138;-73
2022/07/12 11:20:13;;;;;;;;;;;;;;;23.46;49.24;99042.92;1694667;83;20105;-75
2022/07/12 11:22:43;;;;;;;;;;;;;;;23.66;47.35;99039.75;1698332;83;20100;-73
2022/07/12 11:25:23;;;;;;;;;;;;;;;23.64;48.29;99057.59;1698094;83;20452;-72
2022/07/12 11:27:55;;;;;;;;;;;;;;;23.19;46.67;99070.75;1741808;82;20161;-74
2022/07/12 11:30:25;;;;;;;;;;;;;;;22.27;49.21;99097.27;1727896;82;20085;-72
2022/07/12 11:32:53;;;;;;;;;;;;;;;21.39;47.44;99108.78;1718470;83;21164;-71
2022/07/12 11:35:29;;;;;;;;;;;;;;;20.51;47.43;99120.57;1723325;82;20121;-74
2022/07/12 11:37:58;;;;;;;;;;;;;;;19.58;49.94;99131.78;1751291;82;20091;-71
2022/07/12 11:40:30;;;;;;;;;;;;;;;18.86;52.51;99143.41;1752201;82;20122;-71
2022/07/12 11:43:00;;;;;;;;;;;;;;;18.32;56.18;99154.45;1753386;82;20426;-72
2022/07/12 11:45:32;;;;;;;;;;;;;;;17.80;62.87;99171.39;1754676;82;21087;-73
2022/07/12 11:48:01;;;;;;;;;;;;;;;17.09;68.48;99174.32;1752785;82;20119;-74
2022/07/12 11:50:29;;;;;;;;;;;;;;;16.27;73.64;99182.94;1753555;82;20166;-75
2022/07/12 11:52:59;;;;;;;;;;;;;;;15.64;78.53;99188.61;1752404;82;20086;-76
2022/07/12 11:55:27;;;;;;;;;;;;;;;15.10;82.35;99192.53;1728807;82;20114;-77
2022/07/12 11:58:05;;;;;;;;;;;;;;;14.67;85.93;99186.43;1750818;82;20074;-76
2022/07/12 12:00:33;;;;;;;;;;;;;;;14.28;89.63;99185.28;1733279;82;20139;-76
2022/07/12 12:03:02;;;;;;;;;;;;;;;13.96;91.30;99180.95;1754763;81;20118;-76
2022/07/12 12:05:31;;;;;;;;;;;;;;;13.77;95.00;99178.02;1754333;81;20135;-76
2022/07/12 12:08:07;;;;;;;;;;;;;;;13.61;95.49;99175.14;1754037;82;20118;-77
2022/07/12 12:10:36;;;;;;;;;;;;;;;13.48;96.60;99177.66;1728073;82;20115;-71
2022/07/12 12:13:11;;;;;;;;;;;;;;;13.43;97.86;99162.72;1743349;82;20461;-70
2022/07/12 12:15:42;;;;;;;;;;;;;;;13.39;98.51;99146.63;1751197;80;20127;-71
2022/07/12 12:18:08;;;;;;;;;;;;;;;13.44;99.85;99134.00;1728794;82;20493;-73
2022/07/12 12:20:39;;;;;;;;;;;;;;;13.59;100.00;99137.45;1729645;82;20111;-72
2022/07/12 12:23:14;;;;;;;;;;;;;;;13.77;100.00;99130.54;1752399;82;21889;-72
2022/07/12 12:25:46;;;;;;;;;;;;;;;13.96;100.00;99129.91;1752763;80;20139;-71
2022/07/12 12:28:11;;;;;;;;;;;;;;;14.17;100.00;99128.37;1753339;80;20448;-75
2022/07/12 12:30:55;;;;;;;;;;;;;;;14.34;100.00;99124.52;1754290;82;20148;-79
2022/07/12 12:33:38;;;;;;;;;;;;;;;14.52;100.00;99125.25;1699857;83;20124;-77
2022/07/12 12:36:22;;;;;;;;;;;;;;;14.81;100.00;99123.27;1724289;83;21346;-74
2022/07/12 12:38:56;;;;;;;;;;;;;;;15.08;100.00;99127.12;1713416;83;20461;-73
2022/07/12 12:41:23;;;;;;;;;;;;;;;15.29;100.00;99137.92;1692336;85;20149;-79
2022/07/12 12:43:59;;;;;;;;;;;;;;;15.49;100.00;99127.97;1724960;83;20129;-75
2022/07/12 12:49:50;;;;;;;;;;;;;;;16.15;98.47;99130.48;1724480;83;21132;-75
2022/07/12 12:52:19;;;;;;;;;;;;;;;16.58;95.55;99128.56;1725390;83;20162;-75
2022/07/12 12:54:48;;;;;;;;;;;;;;;17.00;93.36;99124.42;1725427;82;20115;-76
2022/07/12 12:57:16;;;;;;;;;;;;;;;17.43;94.39;99122.58;1727163;83;20451;-76
2022/07/12 12:59:46;;;;;;;;;;;;;;;17.83;87.50;99124.03;1727848;83;20235;-79
2022/07/12 13:02:18;;;;;;;;;;;;;;;17.98;82.40;99124.42;1727974;83;21174;-74
2022/07/12 13:04:47;;;;;;;;;;;;;;;17.99;81.43;99132.16;1727376;82;20487;-73
2022/07/12 13:07:13;;;;;;;;;;;;;;;17.96;82.03;99128.75;1722301;83;20095;-76
2022/07/12 13:09:50;;;;;;;;;;;;;;;18.11;83.06;99138.88;1706496;83;20120;-71
2022/07/12 13:12:17;;;;;;;;;;;;;;;18.41;83.72;99143.86;1706459;83;20083;-72
2022/07/12 13:14:53;;;;;;;;;;;;;;;18.83;81.23;99140.00;1729968;81;20091;-72
2022/07/12 13:17:24;;;;;;;;;;;;;;;19.13;79.17;99143.47;1727176;82;20445;-72
2022/07/12 13:19:54;;;;;;;;;;;;;;;19.52;80.82;99138.88;1727659;83;20075;-71